Linworth, Ohio
Current Conditions -  °F | °C
As of 11:53 PM on Friday 28 Nov 2014 (Local Time) from KOSU Reporting Station
Clear Clear  
Wind Chill: 23°   Ceiling: Unl
Heat Index: 31°   Visibility: 10mi
Dew Point: 18°   Wind: 9mph
Humidity: 59%   Direction: 160°SSE
Pressure: 30.11"   Gusts: NA
Location:  40.0994°N, 83.0166°W
Report Text: KOSU 290453Z AUTO 16008KT 10SM CLR M01/M08 A3011 RMK AO2 SLP207 T10061078 400001061
Loading
Personal Weather Stations






























Interactive Weather Map New forecast layout! Learn more

10-Day Weather Forecast

Advertisements
Track Severe Weather on mobile